createdAt,value
2023-02-28T00:01:06.326Z,85.23
2023-02-28T00:03:35.633Z,85.24
2023-02-28T00:06:05.039Z,85.41
2023-02-28T00:08:32.257Z,85.56
2023-02-28T00:11:03.812Z,85.64
2023-02-28T00:13:31.346Z,85.90
2023-02-28T00:16:03.838Z,85.97
2023-02-28T00:18:31.635Z,86.06
2023-02-28T00:20:59.422Z,86.14
2023-02-28T00:23:27.351Z,86.21
2023-02-28T00:25:54.376Z,86.13
2023-02-28T00:28:22.257Z,86.00
2023-02-28T00:30:49.424Z,85.73
2023-02-28T00:33:16.495Z,85.98
2023-02-28T00:35:46.713Z,86.19
2023-02-28T00:38:14.234Z,86.55
2023-02-28T00:40:41.173Z,86.72
2023-02-28T00:43:08.232Z,86.91
2023-02-28T00:45:35.200Z,87.15
2023-02-28T00:48:02.237Z,87.15
2023-02-28T00:50:30.089Z,87.20
2023-02-28T00:52:57.855Z,87.21
2023-02-28T00:55:24.863Z,87.35
2023-02-28T00:57:51.850Z,87.42
2023-02-28T01:00:19.100Z,87.56
2023-02-28T01:02:45.970Z,87.50
2023-02-28T01:05:13.511Z,87.63
2023-02-28T01:07:40.484Z,87.78
2023-02-28T01:10:08.418Z,88.07
2023-02-28T01:12:35.497Z,87.94
2023-02-28T01:15:02.758Z,88.06
2023-02-28T01:17:29.884Z,88.06
2023-02-28T01:19:56.915Z,88.18
2023-02-28T01:22:25.889Z,88.32
2023-02-28T01:24:53.476Z,88.18
2023-02-28T01:27:20.563Z,88.32
2023-02-28T01:29:47.521Z,88.41
2023-02-28T01:32:14.531Z,88.79
2023-02-28T01:34:41.628Z,88.83
2023-02-28T01:37:08.567Z,88.87
2023-02-28T01:39:35.479Z,88.83
2023-02-28T01:42:04.288Z,88.93
2023-02-28T01:45:01.795Z,89.06
2023-02-28T01:47:36.949Z,88.93
2023-02-28T01:50:06.710Z,89.14
2023-02-28T01:52:34.571Z,89.12
2023-02-28T01:55:04.744Z,89.47
2023-02-28T01:57:38.116Z,89.66
2023-02-28T02:00:15.521Z,89.80
2023-02-28T02:02:51.272Z,89.87
2023-02-28T02:05:31.567Z,90.18
2023-02-28T02:08:12.677Z,90.18
2023-02-28T02:10:55.932Z,90.40
2023-02-28T02:13:55.996Z,90.75
2023-02-28T02:16:39.431Z,91.16
2023-02-28T02:19:34.556Z,91.22
2023-02-28T02:22:16.475Z,91.37
2023-02-28T02:24:55.378Z,91.56
2023-02-28T02:27:37.158Z,91.59
2023-02-28T02:30:22.585Z,91.98
2023-02-28T02:32:49.498Z,92.45
2023-02-28T02:36:02.416Z,92.54
2023-02-28T02:38:43.936Z,92.62
2023-02-28T02:41:25.010Z,92.66
2023-02-28T02:44:02.043Z,92.53
2023-02-28T02:46:42.856Z,92.55
2023-02-28T02:49:16.259Z,92.60
2023-02-28T02:51:46.312Z,92.56
2023-02-28T02:54:30.850Z,92.72
2023-02-28T02:57:02.088Z,92.75
2023-02-28T02:59:30.870Z,92.92
2023-02-28T03:02:02.335Z,93.14
2023-02-28T03:04:33.976Z,93.47
2023-02-28T03:07:01.069Z,93.69
2023-02-28T03:09:28.056Z,94.10
2023-02-28T03:11:57.212Z,94.14
2023-02-28T03:14:53.383Z,94.16
2023-02-28T03:17:32.306Z,94.27
2023-02-28T03:19:59.192Z,94.17
2023-02-28T03:22:53.699Z,94.38
2023-02-28T03:25:40.880Z,94.52
2023-02-28T03:28:37.432Z,94.50
2023-02-28T03:31:12.781Z,94.82
2023-02-28T03:33:55.020Z,94.98
2023-02-28T03:36:32.711Z,95.30
2023-02-28T03:39:07.720Z,95.34
2023-02-28T03:41:42.617Z,95.11
2023-02-28T03:44:16.252Z,95.01
2023-02-28T03:46:52.831Z,95.02
2023-02-28T03:49:25.260Z,95.26
2023-02-28T03:51:54.986Z,95.52
2023-02-28T03:54:32.100Z,95.51
2023-02-28T03:57:11.120Z,95.63
2023-02-28T03:59:44.210Z,95.86
2023-02-28T04:02:11.216Z,96.16
2023-02-28T04:04:38.419Z,96.28
2023-02-28T04:07:08.561Z,96.43
2023-02-28T04:09:35.639Z,96.58
2023-02-28T04:12:02.882Z,96.81
2023-02-28T04:14:30.226Z,96.80
2023-02-28T04:16:57.458Z,97.06
2023-02-28T04:19:24.764Z,97.05
2023-02-28T04:21:53.601Z,96.95
2023-02-28T04:24:23.566Z,97.14
2023-02-28T04:26:53.287Z,97.18
2023-02-28T04:29:29.426Z,97.12
2023-02-28T04:32:01.095Z,97.31
2023-02-28T04:34:30.827Z,97.37
2023-02-28T04:37:11.980Z,97.47
2023-02-28T04:39:40.862Z,97.48
2023-02-28T04:42:08.095Z,97.53
2023-02-28T04:44:35.028Z,97.47
2023-02-28T04:47:02.001Z,97.44
2023-02-28T04:49:29.147Z,97.57
2023-02-28T04:51:56.184Z,97.88
2023-02-28T04:54:23.183Z,97.93
2023-02-28T04:56:50.284Z,98.09
2023-02-28T04:59:17.813Z,98.20
2023-02-28T05:01:49.381Z,98.36
2023-02-28T05:04:16.704Z,98.30
2023-02-28T05:06:43.686Z,98.33
2023-02-28T05:09:13.763Z,98.54
2023-02-28T05:11:41.386Z,98.66
2023-02-28T05:14:13.699Z,98.67
2023-02-28T05:16:40.965Z,98.68
2023-02-28T05:19:08.135Z,98.72
2023-02-28T05:21:38.290Z,98.75
2023-02-28T05:24:08.437Z,98.87
2023-02-28T05:26:41.110Z,99.04
2023-02-28T05:29:09.252Z,99.21
2023-02-28T05:31:36.863Z,99.51
2023-02-28T05:34:06.708Z,99.58
2023-02-28T05:36:34.166Z,99.43
2023-02-28T05:39:01.228Z,99.50
2023-02-28T05:41:28.683Z,99.66
2023-02-28T05:43:57.695Z,99.60
2023-02-28T05:46:24.629Z,99.68
2023-02-28T05:48:51.634Z,99.75
2023-02-28T05:51:18.743Z,99.97
2023-02-28T05:53:45.996Z,100.00
2023-02-28T05:56:13.300Z,100.00
2023-02-28T05:58:40.788Z,99.99
2023-02-28T06:01:37.937Z,100.00
2023-02-28T06:04:14.341Z,100.00
2023-02-28T06:06:50.688Z,100.00
2023-02-28T06:09:19.661Z,100.00
2023-02-28T06:11:47.238Z,100.00
2023-02-28T06:14:19.711Z,100.00
2023-02-28T06:16:48.089Z,100.00
2023-02-28T06:19:15.984Z,100.00
2023-02-28T06:21:43.512Z,100.00
2023-02-28T06:24:10.952Z,100.00
2023-02-28T06:26:38.524Z,100.00
2023-02-28T06:29:06.169Z,100.00
2023-02-28T06:31:34.091Z,100.00
2023-02-28T06:34:01.803Z,100.00
2023-02-28T06:36:29.517Z,100.00
2023-02-28T06:38:57.271Z,100.00
2023-02-28T06:41:26.430Z,100.00
2023-02-28T06:43:55.068Z,100.00
2023-02-28T06:46:24.504Z,100.00
2023-02-28T06:48:52.377Z,100.00
2023-02-28T06:51:22.724Z,100.00
2023-02-28T06:53:50.454Z,100.00
2023-02-28T06:56:18.967Z,100.00
2023-02-28T06:58:52.139Z,100.00
2023-02-28T07:01:20.441Z,100.00
2023-02-28T07:03:52.496Z,100.00
2023-02-28T07:06:24.741Z,100.00
2023-02-28T07:08:53.514Z,100.00
2023-02-28T07:11:26.061Z,100.00
2023-02-28T07:13:55.526Z,100.00
2023-02-28T07:16:24.289Z,100.00
2023-02-28T07:18:55.564Z,100.00
2023-02-28T07:21:23.011Z,100.00
2023-02-28T07:23:50.633Z,100.00
2023-02-28T07:26:20.537Z,100.00
2023-02-28T07:28:49.001Z,100.00
2023-02-28T07:31:17.568Z,100.00
2023-02-28T07:33:44.724Z,100.00
2023-02-28T07:36:15.601Z,100.00
2023-02-28T07:38:45.778Z,100.00
2023-02-28T07:41:16.225Z,100.00
2023-02-28T07:43:44.679Z,100.00
2023-02-28T07:46:17.732Z,100.00
2023-02-28T07:48:45.689Z,99.95
2023-02-28T07:51:13.048Z,99.13
2023-02-28T07:53:41.083Z,96.60
2023-02-28T07:56:08.391Z,96.76
2023-02-28T07:58:35.410Z,94.62
2023-02-28T08:01:10.345Z,92.48
2023-02-28T08:03:38.832Z,91.00
2023-02-28T08:06:08.307Z,88.10
2023-02-28T08:08:35.704Z,87.90
2023-02-28T08:11:03.835Z,86.34
2023-02-28T08:13:32.187Z,82.86
2023-02-28T08:16:02.490Z,84.16
2023-02-28T08:18:30.118Z,81.86
2023-02-28T08:20:57.827Z,80.25
2023-02-28T08:23:25.001Z,80.76
2023-02-28T08:25:56.237Z,79.49
2023-02-28T08:28:26.095Z,79.92
2023-02-28T08:30:55.318Z,79.02
2023-02-28T08:33:23.228Z,78.24
2023-02-28T08:35:54.416Z,76.41
2023-02-28T08:38:22.471Z,76.95
2023-02-28T08:40:50.040Z,77.38
2023-02-28T08:43:17.257Z,76.66
2023-02-28T08:45:44.484Z,74.29
2023-02-28T08:48:11.583Z,74.34
2023-02-28T08:50:38.573Z,73.62
2023-02-28T08:53:05.759Z,72.51
2023-02-28T08:55:32.763Z,72.33
2023-02-28T08:58:01.560Z,72.34
2023-02-28T09:00:28.994Z,69.58
2023-02-28T09:02:55.975Z,69.22
2023-02-28T09:05:23.377Z,70.32
2023-02-28T09:07:50.484Z,71.57
2023-02-28T09:10:17.556Z,69.26
2023-02-28T09:12:47.252Z,68.37
2023-02-28T09:15:14.326Z,68.85
2023-02-28T09:17:41.891Z,70.86
2023-02-28T09:20:10.369Z,70.67
2023-02-28T09:22:37.384Z,70.11
2023-02-28T09:25:04.735Z,70.53
2023-02-28T09:27:31.830Z,69.81
2023-02-28T09:29:58.917Z,69.34
2023-02-28T09:32:26.033Z,68.66
2023-02-28T09:34:53.144Z,65.67
2023-02-28T09:37:20.318Z,66.63
2023-02-28T09:39:47.375Z,67.12
2023-02-28T09:42:33.476Z,63.43
2023-02-28T09:45:16.559Z,63.57
2023-02-28T09:47:47.051Z,63.71
2023-02-28T09:50:28.980Z,63.56
2023-02-28T09:52:56.656Z,63.77
2023-02-28T09:55:28.931Z,63.08
2023-02-28T09:58:00.440Z,60.61
2023-02-28T10:00:34.706Z,58.27
2023-02-28T10:03:01.874Z,59.43
2023-02-28T10:06:12.612Z,61.98
2023-02-28T10:08:48.897Z,60.83
2023-02-28T10:11:18.719Z,62.54
2023-02-28T10:14:16.273Z,61.43
2023-02-28T10:17:04.217Z,60.85
2023-02-28T10:19:34.168Z,59.66
2023-02-28T10:22:04.343Z,58.28
2023-02-28T10:24:54.508Z,59.75
2023-02-28T10:27:29.336Z,59.06
2023-02-28T10:29:59.581Z,59.32
2023-02-28T10:32:31.411Z,61.51
2023-02-28T10:35:18.546Z,61.16
2023-02-28T10:37:50.483Z,59.47
2023-02-28T10:40:20.569Z,58.58
2023-02-28T10:43:01.216Z,58.34
2023-02-28T10:45:35.421Z,55.69
2023-02-28T10:48:11.695Z,57.50
2023-02-28T10:50:50.064Z,55.70
2023-02-28T10:53:26.193Z,54.77
2023-02-28T10:56:18.081Z,55.35
2023-02-28T10:58:45.312Z,55.44
2023-02-28T11:01:18.409Z,55.41
2023-02-28T11:03:46.459Z,54.99
2023-02-28T11:06:21.499Z,56.43
2023-02-28T11:08:53.077Z,57.07
2023-02-28T11:11:22.136Z,55.55
2023-02-28T11:13:53.826Z,54.23
2023-02-28T11:16:22.110Z,53.95
2023-02-28T11:18:55.763Z,55.05
2023-02-28T11:21:52.401Z,55.89
2023-02-28T11:24:29.232Z,57.56
2023-02-28T11:26:57.150Z,55.53
2023-02-28T11:29:27.747Z,54.19
2023-02-28T11:32:13.261Z,53.76
2023-02-28T11:34:41.252Z,53.60
2023-02-28T11:37:19.181Z,54.44
2023-02-28T11:39:47.098Z,54.23
2023-02-28T11:42:29.039Z,53.98
2023-02-28T11:45:15.578Z,54.89
2023-02-28T11:47:57.281Z,55.31
2023-02-28T11:50:27.725Z,55.14
2023-02-28T11:52:56.924Z,54.86
2023-02-28T11:55:48.176Z,54.83
2023-02-28T11:58:34.292Z,54.77
2023-02-28T12:01:37.403Z,55.28
2023-02-28T12:04:23.472Z,56.59
2023-02-28T12:06:57.077Z,55.76
2023-02-28T12:09:52.390Z,53.94
2023-02-28T12:12:44.377Z,53.53
2023-02-28T12:15:44.175Z,52.89
2023-02-28T12:18:31.321Z,52.50
2023-02-28T12:21:12.054Z,52.58
2023-02-28T12:23:54.874Z,51.92
2023-02-28T12:26:56.017Z,53.38
2023-02-28T12:29:30.540Z,54.17
2023-02-28T12:32:13.001Z,53.23
2023-02-28T12:35:05.104Z,53.64
2023-02-28T12:37:43.994Z,53.42
2023-02-28T12:40:13.200Z,52.86
2023-02-28T12:42:46.760Z,54.93
2023-02-28T12:45:24.438Z,55.30
2023-02-28T12:48:01.382Z,53.13
2023-02-28T12:50:31.809Z,51.58
2023-02-28T12:53:01.227Z,51.89
2023-02-28T12:55:40.197Z,51.89
2023-02-28T12:58:13.523Z,53.92
2023-02-28T13:01:01.583Z,52.25
2023-02-28T13:04:00.535Z,49.49
2023-02-28T13:07:18.301Z,50.20
2023-02-28T13:10:01.311Z,51.00
2023-02-28T13:12:28.934Z,51.30
2023-02-28T13:15:16.903Z,51.87
2023-02-28T13:17:50.470Z,52.59
2023-02-28T13:20:24.190Z,52.58
2023-02-28T13:22:54.077Z,52.80
2023-02-28T13:25:34.842Z,51.55
2023-02-28T13:28:09.128Z,52.00
2023-02-28T13:30:58.993Z,50.73
2023-02-28T13:33:40.234Z,50.85
2023-02-28T13:36:23.429Z,51.38
2023-02-28T13:39:00.656Z,52.70
2023-02-28T13:41:34.130Z,53.61
2023-02-28T13:44:12.074Z,53.28
2023-02-28T13:46:48.603Z,52.81
2023-02-28T13:49:34.806Z,52.95
2023-02-28T13:52:09.058Z,52.84
2023-02-28T13:55:09.110Z,52.99
2023-02-28T13:57:55.626Z,51.98
2023-02-28T14:01:02.891Z,52.61
2023-02-28T14:03:36.383Z,53.44
2023-02-28T14:06:15.215Z,53.93
2023-02-28T14:08:56.871Z,53.96
2023-02-28T14:11:31.693Z,54.08
2023-02-28T14:13:59.904Z,54.82
2023-02-28T14:16:37.087Z,53.89
2023-02-28T14:19:26.124Z,54.38
2023-02-28T14:22:25.033Z,55.95
2023-02-28T14:25:17.069Z,56.58
2023-02-28T14:27:48.646Z,56.60
2023-02-28T14:30:34.455Z,56.03
2023-02-28T14:33:49.457Z,55.98
2023-02-28T14:36:28.104Z,56.39
2023-02-28T14:39:01.869Z,56.72
2023-02-28T14:41:37.148Z,56.72
2023-02-28T14:44:21.514Z,56.06
2023-02-28T14:46:55.371Z,56.69
2023-02-28T14:49:29.536Z,57.14
2023-02-28T14:52:19.409Z,57.22
2023-02-28T14:54:46.901Z,57.64
2023-02-28T14:57:41.429Z,57.82
2023-02-28T15:00:16.833Z,57.90
2023-02-28T15:02:44.046Z,58.02
2023-02-28T15:05:23.500Z,58.18
2023-02-28T15:08:13.563Z,58.18
2023-02-28T15:10:51.158Z,58.48
2023-02-28T15:13:19.702Z,58.37
2023-02-28T15:16:04.404Z,58.56
2023-02-28T15:18:31.947Z,59.06
2023-02-28T15:21:13.734Z,59.36
2023-02-28T15:23:45.468Z,59.62
2023-02-28T15:26:17.739Z,60.13
2023-02-28T15:28:46.300Z,60.74
2023-02-28T15:31:57.293Z,60.67
2023-02-28T15:34:43.543Z,60.54
2023-02-28T15:37:31.037Z,61.12
2023-02-28T15:40:11.805Z,61.69
2023-02-28T15:42:39.285Z,62.02
2023-02-28T15:45:26.585Z,62.12
2023-02-28T15:47:54.787Z,62.65
2023-02-28T15:50:23.450Z,62.87
2023-02-28T15:52:50.622Z,63.48
2023-02-28T15:55:28.620Z,63.66
2023-02-28T15:57:59.088Z,63.85
2023-02-28T16:00:29.172Z,64.19
2023-02-28T16:02:56.312Z,64.38
2023-02-28T16:05:33.028Z,64.66
2023-02-28T16:08:16.035Z,64.74
2023-02-28T16:10:43.103Z,64.84
2023-02-28T16:13:15.507Z,64.98
2023-02-28T16:15:44.190Z,65.10
2023-02-28T16:18:12.460Z,65.36
2023-02-28T16:20:39.709Z,65.30
2023-02-28T16:23:07.519Z,65.82
2023-02-28T16:25:39.048Z,66.03
2023-02-28T16:28:18.856Z,66.37
2023-02-28T16:30:45.965Z,66.96
2023-02-28T16:33:12.907Z,67.04
2023-02-28T16:35:40.111Z,67.53
2023-02-28T16:38:07.142Z,67.72
2023-02-28T16:40:36.125Z,68.01
2023-02-28T16:43:10.168Z,68.22
2023-02-28T16:45:37.271Z,68.66
2023-02-28T16:48:04.387Z,69.18
2023-02-28T16:50:33.004Z,69.68
2023-02-28T16:52:59.971Z,70.42
2023-02-28T16:55:28.287Z,70.74
2023-02-28T16:57:58.828Z,71.04
2023-02-28T17:00:27.752Z,71.12
2023-02-28T17:02:55.516Z,71.13
2023-02-28T17:05:23.564Z,71.40
2023-02-28T17:07:50.670Z,71.70
2023-02-28T17:10:25.349Z,72.28
2023-02-28T17:12:55.012Z,73.14
2023-02-28T17:15:23.845Z,73.83
2023-02-28T17:17:50.906Z,74.05
2023-02-28T17:20:26.925Z,74.53
2023-02-28T17:22:54.834Z,74.71
2023-02-28T17:25:23.080Z,74.82
2023-02-28T17:27:53.626Z,75.02
2023-02-28T17:30:27.541Z,75.34
2023-02-28T17:32:57.668Z,75.68
2023-02-28T17:35:24.658Z,76.06
2023-02-28T17:37:52.071Z,76.31
2023-02-28T17:40:22.753Z,76.63
2023-02-28T17:42:52.715Z,77.20
2023-02-28T17:45:20.222Z,77.46
2023-02-28T17:47:50.743Z,77.75
2023-02-28T17:50:21.334Z,78.04
2023-02-28T17:52:50.798Z,78.13
2023-02-28T17:55:19.369Z,78.43
2023-02-28T17:57:46.712Z,78.48
2023-02-28T18:00:17.688Z,78.84
2023-02-28T18:02:44.937Z,78.86
2023-02-28T18:05:12.027Z,79.06
2023-02-28T18:07:39.641Z,79.42
2023-02-28T18:10:13.351Z,79.77
2023-02-28T18:12:40.380Z,80.17
2023-02-28T18:15:07.749Z,80.34
2023-02-28T18:17:34.716Z,80.71
2023-02-28T18:20:01.870Z,80.89
2023-02-28T18:22:28.977Z,81.25
2023-02-28T18:24:55.960Z,81.33
2023-02-28T18:27:22.970Z,81.59
2023-02-28T18:29:51.794Z,81.93
2023-02-28T18:32:18.724Z,82.20
2023-02-28T18:34:45.832Z,82.37
2023-02-28T18:37:12.835Z,82.65
2023-02-28T18:39:39.952Z,83.07
2023-02-28T18:42:08.294Z,83.35
2023-02-28T18:44:37.607Z,83.51
2023-02-28T18:47:04.801Z,83.87
2023-02-28T18:49:37.333Z,83.97
2023-02-28T18:52:04.476Z,84.19
2023-02-28T18:54:31.409Z,84.43
2023-02-28T18:56:58.364Z,84.70
2023-02-28T18:59:25.727Z,84.98
2023-02-28T19:01:52.746Z,85.23
2023-02-28T19:04:19.857Z,85.34
2023-02-28T19:06:46.888Z,85.73
2023-02-28T19:09:15.469Z,86.00
2023-02-28T19:11:43.668Z,86.24
2023-02-28T19:14:10.599Z,86.42
2023-02-28T19:16:37.773Z,86.61
2023-02-28T19:19:05.143Z,86.70
2023-02-28T19:21:32.191Z,86.87
2023-02-28T19:24:02.197Z,86.90
2023-02-28T19:26:29.661Z,87.08
2023-02-28T19:28:56.938Z,87.15
2023-02-28T19:31:25.748Z,87.41
2023-02-28T19:33:53.443Z,87.40
2023-02-28T19:36:21.443Z,87.60
2023-02-28T19:38:49.575Z,87.84
2023-02-28T19:41:17.810Z,87.91
2023-02-28T19:43:45.634Z,88.03
2023-02-28T19:46:15.686Z,88.19
2023-02-28T19:48:44.184Z,88.44
2023-02-28T19:51:14.649Z,88.59
2023-02-28T19:53:42.932Z,88.58
2023-02-28T19:56:11.218Z,88.77
2023-02-28T19:58:39.030Z,89.01
2023-02-28T20:01:17.942Z,89.15
2023-02-28T20:03:51.503Z,89.18
2023-02-28T20:06:18.581Z,89.41
2023-02-28T20:08:45.764Z,89.59
2023-02-28T20:11:15.993Z,89.71
2023-02-28T20:13:44.300Z,89.88
2023-02-28T20:16:12.567Z,90.03
2023-02-28T20:18:40.975Z,90.31
2023-02-28T20:21:09.502Z,90.45
2023-02-28T20:23:41.141Z,90.63
2023-02-28T20:26:09.302Z,90.74
2023-02-28T20:28:36.530Z,90.92
2023-02-28T20:31:10.316Z,91.12
2023-02-28T20:33:37.336Z,91.23
2023-02-28T20:36:04.977Z,91.29
2023-02-28T20:38:32.673Z,91.43
2023-02-28T20:41:00.736Z,91.41
2023-02-28T20:43:29.183Z,91.48
2023-02-28T20:46:00.832Z,91.55
2023-02-28T20:48:32.670Z,91.69
2023-02-28T20:50:59.712Z,91.73
2023-02-28T20:53:27.922Z,91.70
2023-02-28T20:55:55.052Z,91.81
2023-02-28T20:58:24.501Z,91.84
2023-02-28T21:00:58.479Z,92.27
2023-02-28T21:03:25.473Z,92.51
2023-02-28T21:05:52.331Z,92.51
2023-02-28T21:08:19.477Z,92.62
2023-02-28T21:10:46.570Z,92.77
2023-02-28T21:13:13.758Z,92.98
2023-02-28T21:15:40.679Z,93.07
2023-02-28T21:18:08.366Z,93.07
2023-02-28T21:20:35.348Z,93.12
2023-02-28T21:23:02.405Z,93.31
2023-02-28T21:25:32.798Z,93.44
2023-02-28T21:27:59.718Z,93.62
2023-02-28T21:30:26.615Z,93.76
2023-02-28T21:32:53.713Z,93.97
2023-02-28T21:35:20.928Z,94.15
2023-02-28T21:37:47.909Z,94.18
2023-02-28T21:40:15.002Z,94.31
2023-02-28T21:42:41.948Z,94.48
2023-02-28T21:45:09.118Z,94.59
2023-02-28T21:47:36.170Z,94.63
2023-02-28T21:50:03.247Z,94.77
2023-02-28T21:52:30.167Z,95.05
2023-02-28T21:54:57.316Z,95.23
2023-02-28T21:57:24.350Z,95.06
2023-02-28T21:59:51.416Z,95.23
2023-02-28T22:02:18.470Z,95.28
2023-02-28T22:04:45.443Z,95.32
2023-02-28T22:07:12.465Z,95.40
2023-02-28T22:09:39.416Z,95.53
2023-02-28T22:12:07.790Z,95.53
2023-02-28T22:14:34.725Z,95.46
2023-02-28T22:17:01.812Z,95.49
2023-02-28T22:19:29.448Z,95.61
2023-02-28T22:21:56.585Z,95.62
2023-02-28T22:24:24.658Z,95.69
2023-02-28T22:26:53.188Z,95.86
2023-02-28T22:29:20.451Z,96.05
2023-02-28T22:31:47.670Z,96.14
2023-02-28T22:34:14.701Z,96.23
2023-02-28T22:36:42.865Z,96.36
2023-02-28T22:39:10.477Z,96.52
2023-02-28T22:41:38.171Z,96.70
2023-02-28T22:44:06.650Z,96.79
2023-02-28T22:46:34.605Z,96.82
2023-02-28T22:49:03.900Z,96.96
2023-02-28T22:51:31.312Z,97.07
2023-02-28T22:53:58.743Z,97.16
2023-02-28T22:56:29.029Z,97.33
2023-02-28T22:58:58.460Z,97.31
2023-02-28T23:01:28.543Z,97.49
2023-02-28T23:03:56.192Z,97.58
2023-02-28T23:06:26.346Z,97.68
2023-02-28T23:08:57.728Z,97.67
2023-02-28T23:11:28.593Z,97.76
2023-02-28T23:13:59.274Z,97.82
2023-02-28T23:16:37.130Z,97.89
2023-02-28T23:19:13.952Z,97.91
2023-02-28T23:21:42.036Z,98.02
2023-02-28T23:24:11.235Z,98.03
2023-02-28T23:26:43.285Z,98.11
2023-02-28T23:29:12.301Z,98.34
2023-02-28T23:31:39.469Z,98.42
2023-02-28T23:34:07.528Z,98.47
2023-02-28T23:36:34.755Z,98.41
2023-02-28T23:39:01.805Z,98.41
2023-02-28T23:41:29.094Z,98.51
2023-02-28T23:43:56.278Z,98.59
2023-02-28T23:46:23.407Z,98.52
2023-02-28T23:48:50.743Z,98.73
2023-02-28T23:51:20.577Z,98.72
2023-02-28T23:53:51.814Z,98.75
2023-02-28T23:56:21.612Z,98.69
2023-02-28T23:58:49.756Z,98.77
